createdAt,value
2019-04-10T00:00:44.378Z,0.30
2019-04-10T00:04:49.410Z,0.20
2019-04-10T00:08:52.817Z,0.40
2019-04-10T00:12:56.171Z,0.33
2019-04-10T00:16:58.843Z,0.43
2019-04-10T00:21:01.288Z,0.30
2019-04-10T00:25:04.302Z,0.27
2019-04-10T00:29:07.756Z,0.30
2019-04-10T00:33:10.648Z,0.30
2019-04-10T00:37:22.954Z,0.27
2019-04-10T00:41:17.425Z,0.20
2019-04-10T00:45:20.104Z,0.40
2019-04-10T00:49:23.718Z,0.40
2019-04-10T00:53:27.453Z,0.33
2019-04-10T00:57:29.886Z,0.20
2019-04-10T01:01:32.409Z,0.33
2019-04-10T01:05:35.358Z,0.27
2019-04-10T01:09:38.206Z,0.20
2019-04-10T01:13:41.103Z,0.40
2019-04-10T01:17:44.800Z,0.37
2019-04-10T01:21:47.489Z,0.30
2019-04-10T01:25:50.590Z,0.37
2019-04-10T01:29:54.062Z,0.30
2019-04-10T01:33:56.914Z,0.30
2019-04-10T01:38:02.350Z,0.27
2019-04-10T01:42:04.035Z,0.20
2019-04-10T01:46:06.656Z,0.33
2019-04-10T01:50:10.474Z,0.50
2019-04-10T01:54:13.090Z,0.20
2019-04-10T01:58:21.088Z,0.40
2019-04-10T02:02:37.065Z,0.30
2019-04-10T02:06:39.955Z,0.20
2019-04-10T02:10:42.890Z,0.23
2019-04-10T02:14:46.824Z,0.30
2019-04-10T02:18:49.970Z,0.47
2019-04-10T02:22:53.867Z,0.33
2019-04-10T02:26:56.709Z,0.30
2019-04-10T02:31:00.684Z,0.40
2019-04-10T02:35:04.052Z,0.30
2019-04-10T02:39:21.836Z,0.30
2019-04-10T02:43:14.068Z,0.37
2019-04-10T02:47:17.514Z,0.43
2019-04-10T02:51:23.022Z,0.23
2019-04-10T02:55:27.228Z,0.30
2019-04-10T02:59:31.054Z,0.20
2019-04-10T03:03:34.286Z,0.27
2019-04-10T03:07:37.018Z,0.30
2019-04-10T03:11:41.972Z,0.33
2019-04-10T03:15:45.084Z,0.40
2019-04-10T03:19:47.826Z,0.30
2019-04-10T03:23:50.299Z,0.53
2019-04-10T03:27:53.125Z,0.40
2019-04-10T03:31:59.289Z,0.40
2019-04-10T03:36:01.598Z,0.40
2019-04-10T03:40:04.962Z,0.40
2019-04-10T03:44:08.116Z,0.40
2019-04-10T03:48:11.700Z,0.30
2019-04-10T03:52:14.629Z,0.20
2019-04-10T03:56:17.981Z,0.30
2019-04-10T04:00:21.105Z,0.30
2019-04-10T04:04:23.806Z,1.20
2019-04-10T04:08:26.378Z,0.20
2019-04-10T04:12:28.860Z,0.50
2019-04-10T04:16:31.847Z,0.70
2019-04-10T04:20:35.017Z,0.67
2019-04-10T04:24:39.938Z,0.60
2019-04-10T04:28:41.863Z,0.40
2019-04-10T04:32:44.592Z,0.57
2019-04-10T04:36:48.930Z,0.50
2019-04-10T04:40:51.873Z,0.77
2019-04-10T04:44:56.259Z,0.70
2019-04-10T04:49:00.043Z,0.50
2019-04-10T04:53:02.782Z,0.30
2019-04-10T04:57:06.550Z,0.37
2019-04-10T05:01:09.166Z,0.67
2019-04-10T05:05:11.862Z,0.57
2019-04-10T05:09:25.952Z,0.60
2019-04-10T05:13:22.244Z,0.70
2019-04-10T05:17:28.773Z,0.50
2019-04-10T05:21:31.387Z,0.60
2019-04-10T05:25:34.580Z,0.60
2019-04-10T05:29:37.411Z,0.80
2019-04-10T05:33:40.773Z,0.73
2019-04-10T05:37:43.544Z,0.70
2019-04-10T05:41:47.027Z,0.83
2019-04-10T05:45:50.677Z,0.70
2019-04-10T05:49:53.487Z,0.10
2019-04-10T05:53:56.199Z,0.53
2019-04-10T05:57:59.433Z,0.20
2019-04-10T06:02:01.667Z,0.40
2019-04-10T06:06:04.305Z,0.40
2019-04-10T06:10:10.326Z,0.40
2019-04-10T06:14:12.171Z,0.50
2019-04-10T06:18:15.285Z,0.47
2019-04-10T06:22:18.720Z,0.33
2019-04-10T06:26:21.837Z,0.60
2019-04-10T06:30:24.404Z,0.37
2019-04-10T06:34:26.909Z,0.40
2019-04-10T06:38:29.326Z,0.40
2019-04-10T06:42:44.361Z,0.50
2019-04-10T06:46:37.956Z,0.50
2019-04-10T06:50:41.245Z,0.37
2019-04-10T06:54:44.857Z,0.50
2019-04-10T06:58:47.792Z,0.40
2019-04-10T07:02:52.591Z,0.90
2019-04-10T07:07:00.728Z,0.20
2019-04-10T07:11:06.016Z,0.50
2019-04-10T07:15:04.210Z,0.50
2019-04-10T07:19:11.629Z,0.40
2019-04-10T07:23:18.275Z,0.50
2019-04-10T07:27:19.475Z,0.40
2019-04-10T07:31:22.058Z,0.60
2019-04-10T07:35:25.756Z,0.80
2019-04-10T07:39:31.025Z,0.67
2019-04-10T07:43:32.631Z,0.70
2019-04-10T07:47:35.649Z,0.63
2019-04-10T07:51:38.906Z,0.53
2019-04-10T07:55:42.117Z,0.50
2019-04-10T07:59:45.414Z,0.90
2019-04-10T08:03:47.934Z,0.70
2019-04-10T08:07:53.390Z,0.90
2019-04-10T08:11:56.734Z,0.97
2019-04-10T08:15:59.311Z,0.77
2019-04-10T08:20:02.237Z,0.80
2019-04-10T08:24:05.214Z,0.57
2019-04-10T08:28:07.754Z,0.50
2019-04-10T08:32:10.092Z,0.80
2019-04-10T08:36:12.996Z,1.03
2019-04-10T08:40:15.971Z,0.80
2019-04-10T08:44:19.712Z,0.90
2019-04-10T08:48:27.534Z,0.60
2019-04-10T08:52:30.531Z,0.70
2019-04-10T08:56:33.364Z,1.17
2019-04-10T09:00:36.506Z,1.30
2019-04-10T09:04:39.333Z,0.90
2019-04-10T09:08:43.587Z,0.90
2019-04-10T09:12:47.256Z,0.77
2019-04-10T09:16:51.006Z,1.10
2019-04-10T09:20:53.746Z,1.20
2019-04-10T09:24:58.449Z,1.30
2019-04-10T09:29:02.562Z,0.90
2019-04-10T09:33:15.694Z,1.20
2019-04-10T09:37:10.881Z,0.80
2019-04-10T09:41:14.181Z,1.10
2019-04-10T09:45:17.774Z,0.80
2019-04-10T09:49:31.647Z,0.80
2019-04-10T09:53:29.385Z,1.20
2019-04-10T09:57:34.763Z,0.93
2019-04-10T10:01:37.976Z,1.17
2019-04-10T10:05:40.492Z,1.40
2019-04-10T10:09:43.196Z,1.33
2019-04-10T10:13:45.935Z,1.20
2019-04-10T10:17:48.838Z,1.30
2019-04-10T10:21:52.552Z,1.50
2019-04-10T10:25:55.957Z,1.40
2019-04-10T10:29:58.575Z,1.50
2019-04-10T10:34:01.898Z,2.10
2019-04-10T10:38:05.424Z,1.50
2019-04-10T10:42:08.162Z,1.20
2019-04-10T10:46:11.414Z,1.40
2019-04-10T10:50:15.167Z,1.20
2019-04-10T10:54:18.868Z,1.60
2019-04-10T10:58:21.823Z,1.40
2019-04-10T11:02:25.468Z,1.43
2019-04-10T11:06:29.081Z,1.53
2019-04-10T11:10:31.631Z,1.50
2019-04-10T11:14:35.334Z,1.73
2019-04-10T11:18:38.254Z,1.33
2019-04-10T11:22:42.411Z,1.43
2019-04-10T11:26:47.101Z,1.50
2019-04-10T11:30:53.490Z,1.97
2019-04-10T11:34:56.889Z,1.50
2019-04-10T11:39:10.552Z,1.40
2019-04-10T11:43:07.557Z,1.30
2019-04-10T11:47:12.454Z,1.60
2019-04-10T11:51:16.497Z,1.70
2019-04-10T11:55:21.175Z,1.67
2019-04-10T11:59:24.239Z,1.33
2019-04-10T12:03:27.184Z,1.10
2019-04-10T12:08:06.056Z,1.70
2019-04-10T12:11:35.138Z,1.67
2019-04-10T12:15:38.639Z,1.20
2019-04-10T12:19:42.434Z,1.80
2019-04-10T12:23:45.287Z,1.77
2019-04-10T12:27:47.851Z,1.50
2019-04-10T12:31:52.445Z,2.00
2019-04-10T12:35:56.185Z,1.20
2019-04-10T12:39:58.872Z,1.80
2019-04-10T12:44:01.294Z,0.93
2019-04-10T12:48:04.268Z,2.03
2019-04-10T12:52:07.855Z,1.50
2019-04-10T12:56:10.719Z,1.80
2019-04-10T13:00:18.603Z,1.70
2019-04-10T13:04:22.348Z,2.00
2019-04-10T13:08:35.165Z,2.10
2019-04-10T13:12:29.290Z,2.00
2019-04-10T13:16:32.158Z,2.30
2019-04-10T13:20:34.822Z,2.23
2019-04-10T13:24:37.599Z,2.10
2019-04-10T13:28:39.376Z,2.43
2019-04-10T13:32:42.419Z,2.50
2019-04-10T13:36:45.854Z,2.80
2019-04-10T13:40:48.599Z,2.20
2019-04-10T13:44:50.965Z,1.57
2019-04-10T13:48:53.623Z,2.50
2019-04-10T13:52:57.431Z,2.50
2019-04-10T13:57:00.171Z,2.90
2019-04-10T14:01:03.102Z,3.00
2019-04-10T14:05:07.496Z,3.40
2019-04-10T14:09:31.154Z,2.50
2019-04-10T14:13:24.112Z,2.57
2019-04-10T14:17:27.769Z,2.70
2019-04-10T14:21:31.152Z,2.93
2019-04-10T14:25:47.739Z,3.33
2019-04-10T14:29:51.042Z,3.03
2019-04-10T14:33:53.785Z,3.00
2019-04-10T14:37:56.877Z,2.90
2019-04-10T14:42:00.142Z,2.70
2019-04-10T14:46:03.443Z,3.03
2019-04-10T14:50:07.549Z,3.23
2019-04-10T14:54:11.320Z,2.77
2019-04-10T14:58:22.808Z,3.10
2019-04-10T15:02:19.506Z,3.17
2019-04-10T15:06:23.424Z,3.17
2019-04-10T15:10:26.361Z,3.20
2019-04-10T15:14:29.878Z,3.30
2019-04-10T15:18:33.266Z,3.47
2019-04-10T15:22:35.981Z,2.57
2019-04-10T15:26:40.401Z,3.03
2019-04-10T15:30:43.144Z,2.43
2019-04-10T15:34:46.081Z,2.60
2019-04-10T15:38:48.712Z,2.43
2019-04-10T15:42:52.433Z,2.77
2019-04-10T15:47:07.334Z,2.97
2019-04-10T15:51:00.627Z,2.53
2019-04-10T15:55:03.690Z,2.40
2019-04-10T15:59:06.118Z,2.77
2019-04-10T16:03:09.193Z,2.30
2019-04-10T16:07:14.203Z,2.40
2019-04-10T16:11:34.067Z,1.93
2019-04-10T16:15:40.745Z,2.63
2019-04-10T16:19:54.337Z,2.80
2019-04-10T16:24:04.549Z,3.00
2019-04-10T16:28:08.312Z,2.50
2019-04-10T16:32:12.636Z,3.00
2019-04-10T16:36:15.574Z,2.63
2019-04-10T16:40:18.551Z,2.63
2019-04-10T16:44:21.965Z,2.67
2019-04-10T16:48:26.286Z,2.93
2019-04-10T16:52:29.237Z,2.20
2019-04-10T16:56:31.897Z,2.77
2019-04-10T17:00:35.455Z,2.53
2019-04-10T17:04:39.553Z,2.57
2019-04-10T17:08:42.218Z,2.30
2019-04-10T17:12:44.640Z,2.20
2019-04-10T17:16:48.115Z,2.37
2019-04-10T17:20:51.015Z,2.90
2019-04-10T17:24:54.128Z,2.10
2019-04-10T17:28:56.773Z,2.33
2019-04-10T17:33:00.555Z,2.57
2019-04-10T17:37:03.520Z,2.50
2019-04-10T17:41:07.177Z,2.23
2019-04-10T17:45:10.561Z,2.47
2019-04-10T17:49:15.011Z,1.80
2019-04-10T17:53:18.502Z,2.50
2019-04-10T17:57:33.714Z,2.70
2019-04-10T18:01:27.473Z,2.47
2019-04-10T18:05:30.878Z,2.67
2019-04-10T18:09:33.095Z,2.63
2019-04-10T18:13:36.394Z,2.50
2019-04-10T18:17:38.854Z,2.13
2019-04-10T18:21:44.161Z,2.40
2019-04-10T18:25:47.204Z,2.50
2019-04-10T18:29:49.891Z,2.20
2019-04-10T18:33:53.095Z,2.43
2019-04-10T18:37:55.908Z,2.40
2019-04-10T18:41:59.793Z,2.70
2019-04-10T18:46:10.786Z,2.57
2019-04-10T18:50:07.911Z,2.50
2019-04-10T18:54:12.263Z,2.23
2019-04-10T18:58:19.173Z,2.27
2019-04-10T19:02:41.196Z,2.47
2019-04-10T19:06:53.671Z,2.50
2019-04-10T19:11:10.874Z,2.10
2019-04-10T19:15:00.755Z,2.63
2019-04-10T19:19:03.863Z,2.13
2019-04-10T19:23:06.838Z,2.03
2019-04-10T19:27:11.773Z,2.10
2019-04-10T19:31:19.500Z,2.13
2019-04-10T19:35:20.061Z,2.20
2019-04-10T19:39:24.452Z,1.97
2019-04-10T19:43:28.983Z,2.07
2019-04-10T19:47:32.500Z,2.20
2019-04-10T19:51:36.394Z,2.20
2019-04-10T19:55:40.054Z,2.63
2019-04-10T19:59:43.962Z,2.00
2019-04-10T20:03:48.019Z,2.83
2019-04-10T20:07:51.379Z,2.03
2019-04-10T20:11:56.132Z,2.23
2019-04-10T20:15:58.630Z,2.37
2019-04-10T20:20:00.915Z,2.07
2019-04-10T20:24:03.484Z,1.90
2019-04-10T20:28:07.221Z,2.10
2019-04-10T20:32:11.116Z,2.30
2019-04-10T20:36:15.149Z,2.33
2019-04-10T20:40:18.055Z,2.37
2019-04-10T20:44:22.694Z,2.47
2019-04-10T20:48:28.685Z,2.30
2019-04-10T20:52:32.444Z,2.10
2019-04-10T20:56:35.005Z,2.60
2019-04-10T21:00:41.233Z,2.63
2019-04-10T21:04:54.730Z,2.43
2019-04-10T21:08:50.343Z,2.57
2019-04-10T21:12:53.146Z,2.40
2019-04-10T21:16:56.128Z,2.67
2019-04-10T21:20:59.580Z,2.10
2019-04-10T21:25:02.839Z,1.83
2019-04-10T21:29:09.462Z,2.17
2019-04-10T21:33:43.008Z,2.27
2019-04-10T21:37:46.588Z,1.87
2019-04-10T21:41:49.208Z,2.33
2019-04-10T21:45:51.848Z,2.37
2019-04-10T21:49:54.733Z,1.83
2019-04-10T21:53:57.926Z,2.30
2019-04-10T21:58:00.624Z,2.80
2019-04-10T22:02:03.217Z,2.60
2019-04-10T22:06:28.769Z,2.10
2019-04-10T22:10:36.300Z,2.37
2019-04-10T22:14:39.637Z,2.70
2019-04-10T22:18:42.474Z,2.27
2019-04-10T22:22:45.045Z,2.60
2019-04-10T22:26:47.342Z,2.10
2019-04-10T22:30:50.942Z,2.50
2019-04-10T22:34:53.244Z,2.50
2019-04-10T22:38:55.565Z,2.37
2019-04-10T22:42:57.819Z,2.80
2019-04-10T22:47:01.085Z,2.30
2019-04-10T22:51:03.509Z,2.63
2019-04-10T22:55:07.142Z,2.33
2019-04-10T22:59:10.174Z,2.50
2019-04-10T23:03:13.494Z,2.10
2019-04-10T23:07:15.981Z,2.33
2019-04-10T23:11:30.416Z,2.37
2019-04-10T23:15:23.134Z,2.23
2019-04-10T23:19:25.909Z,2.30
2019-04-10T23:23:28.369Z,2.53
2019-04-10T23:27:30.822Z,2.67
2019-04-10T23:31:34.021Z,2.27
2019-04-10T23:35:37.804Z,3.23
2019-04-10T23:39:40.653Z,2.37
2019-04-10T23:43:44.024Z,2.80
2019-04-10T23:47:46.580Z,2.67
2019-04-10T23:51:49.575Z,2.53
2019-04-10T23:55:52.436Z,2.87
2019-04-10T23:59:55.223Z,2.77
